Terminal Aerodrome Forecast
Issued by NWS

Home | Current Version | Previous Version | Text Only | Print | Product List | Glossary On
Versions: 1 2 3 4 5 6 7 8 9 10 11 12 13 14 15 16 17 18 19 20
000
FTPA31 PHFO 230500
TAFMDY
TAF
PMDY 230537Z 2306/2406 17010KT P6SM VCSH SCT020 BKN050
     FM231800 20012KT P6SM -SHRA SCT015 BKN035
      AMD LTD TO CLD AND WIND=

USA.gov is the U.S. government's official web portal to all federal, state and local government web resources and services.